Amboy, Minnesota
Current Conditions -  °F | °C
As of 11:55 PM on Wednesday 22 Oct 2014 (Local Time) from KJYG Reporting Station
Light Rain Light Rain  
Wind Chill: 57°   Ceiling: 9000
Heat Index: 57°   Visibility: 10mi
Dew Point: 52°   Wind: 9mph
Humidity: 82%   Direction: 170°S
Pressure: 30.02"   Gusts: NA
Location:  43.89°N, 94.16°W
Report Text: KJYG 230455Z AUTO 17008KT 10SM -RA SCT034 SCT070 OVC090 14/11 A3002 RMK AO2
Loading
Personal Weather Stations






























Interactive Weather Map
Tropical Storm Tracking
New forecast layout! Learn more

10-Day Weather Forecast

Advertisements
Track Severe Weather on mobile